Hauptseite
METAR-TAF:

METAR-TAF

Flughäfen :

Militärflugplatz Beauvechain

Beauvechain, Belgien

Breite: 50-45N, Länge: 004-46E, Höhe: 105 m

Beobachtung

Neuester Wetterbericht von vor 41 Minuten, um 10:55 UTC
Wind 17 kt aus West/Südwest
Temperatur 23°C
Luftfeuchtigkeit 53%
Luftdruck 1018 hPa
Sichtweite 10 km oder mehr
Leicht bewölkt in der Höhe von 2800 ft

METAR: EBBE 191055Z 24017KT 9999 FEW028 23/13 Q1018 BLU BLU

Zeit: 13:36 (11:36 UTC)

Prognose

Neuester Wetterbericht von vor 1 Stunde und 58 Minuten, um 09:38 UTC
Gültige Prognose vom 19 um 10 UTC bis 19 um 19 UTC
Wind 13 kt aus Südwest, Böen bis zu 23 kt
Sichtweite 10 km oder mehr
Leicht bewölkt in der Höhe von 2000 ft
Durchbrochene Bewölkung in der Höhe von 4000 ft

TAF: EBBE 190938Z 1910/1919 23013G23KT 9999 FEW020 BKN040

Wetterbeobachtungen und Prognosen von mehr als 4000 Flughäfen (METAR und TAF Bericht).

Die verfügbaren Stationen werden durch gelbe und rote Markierungen auf der Karte dargestellt.

Führen Sie die Maus auf sie, um den Namen der Station zu sehen.

Darauf klicken, um die Beobachtung von Wetterbeobachtungen und Prognosen zu sehen.

Um die Karte zu ändern : klicken Sie auf den grünen Tasten mit einem schwarzen Kreuz Zum Vergrößern, auf den grünen Button mit einem Gedankenstrich zu verkleinern, oder auf die grünen Pfeile für benachbarte Karten.


METAR-TAF: